Time;durP1;ratioP1;P1;durP2;ratioP2;P2;SDS_P1;SDS_P2;PMS_P1;PMS_P2;Temp;Humidity;BMP_temperature;BMP_pressure;BME280_temperature;BME280_humidity;BME280_pressure;Samples;Min_cycle;Max_cycle;Signal;HPM_P1;HPM_P2
2023/03/01 00:00:54;;;;;;;20.75;9.55;;;3.70;94.10;;;;;;5064605;28;20052;-77
2023/03/01 00:03:20;;;;;;;17.05;8.57;;;3.90;94.00;;;;;;5070529;28;20117;-78
2023/03/01 00:05:46;;;;;;;13.32;6.75;;;3.90;93.80;;;;;;5071993;28;20028;-78
2023/03/01 00:08:12;;;;;;;12.23;6.88;;;3.70;93.90;;;;;;5071747;28;20032;-76
2023/03/01 00:10:38;;;;;;;12.13;7.22;;;3.50;94.20;;;;;;5073572;28;20055;-77
2023/03/01 00:13:05;;;;;;;12.60;6.32;;;3.30;94.50;;;;;;5071572;28;20546;-77
2023/03/01 00:15:31;;;;;;;12.80;6.07;;;3.40;94.50;;;;;;5061944;28;20040;-78
2023/03/01 00:17:57;;;;;;;15.65;7.95;;;3.50;94.30;;;;;;5075749;28;20021;-77
2023/03/01 00:20:23;;;;;;;14.05;6.40;;;3.80;94.20;;;;;;5072833;28;20024;-77
2023/03/01 00:22:49;;;;;;;14.02;7.15;;;3.90;93.90;;;;;;5075273;28;20025;-77
2023/03/01 00:25:15;;;;;;;16.40;8.40;;;3.80;94.00;;;;;;5063859;28;20102;-76
2023/03/01 00:27:40;;;;;;;13.80;7.68;;;3.60;94.30;;;;;;5073159;28;20448;-77
2023/03/01 00:30:06;;;;;;;12.40;7.20;;;3.50;94.40;;;;;;5071709;28;20036;-77
2023/03/01 00:32:32;;;;;;;12.32;6.90;;;3.60;94.40;;;;;;5071916;28;20036;-77
2023/03/01 00:34:58;;;;;;;14.82;7.13;;;3.60;94.40;;;;;;5073418;28;20024;-77
2023/03/01 00:37:24;;;;;;;12.93;7.38;;;3.60;94.40;;;;;;5073652;28;20436;-77
2023/03/01 00:39:50;;;;;;;10.27;6.70;;;3.50;94.80;;;;;;5073762;28;20078;-77
2023/03/01 00:42:16;;;;;;;11.90;7.13;;;3.40;94.70;;;;;;5073417;28;20535;-77
2023/03/01 00:44:41;;;;;;;14.60;7.32;;;3.10;95.00;;;;;;5074016;28;20037;-77
2023/03/01 00:47:07;;;;;;;11.45;6.45;;;3.30;95.10;;;;;;5073156;28;20028;-77
2023/03/01 00:49:33;;;;;;;14.10;8.18;;;3.20;95.00;;;;;;5073380;28;20032;-76
2023/03/01 00:51:59;;;;;;;16.45;7.38;;;3.20;94.90;;;;;;5067638;28;20041;-77
2023/03/01 00:54:25;;;;;;;14.57;8.20;;;3.70;94.60;;;;;;5064106;28;20024;-77
2023/03/01 00:56:50;;;;;;;13.27;7.57;;;3.80;94.40;;;;;;5072043;28;20028;-77
2023/03/01 00:59:16;;;;;;;14.98;7.15;;;3.70;94.40;;;;;;5063883;28;20028;-76
2023/03/01 01:01:42;;;;;;;14.68;7.57;;;3.80;94.30;;;;;;5064280;28;20020;-77
2023/03/01 01:04:10;;;;;;;11.43;6.85;;;3.80;94.20;;;;;;5071139;28;20058;-77
2023/03/01 01:06:39;;;;;;;13.98;7.78;;;3.90;94.10;;;;;;5069002;28;20040;-77
2023/03/01 01:09:06;;;;;;;15.30;8.95;;;3.90;94.10;;;;;;5072735;28;20028;-77
2023/03/01 01:11:34;;;;;;;13.85;8.68;;;4.10;94.00;;;;;;5073487;28;20102;-77
2023/03/01 01:14:00;;;;;;;13.45;8.10;;;4.00;93.90;;;;;;5071872;28;20052;-77
2023/03/01 01:16:28;;;;;;;13.23;7.70;;;3.80;94.00;;;;;;5068777;28;20450;-77
2023/03/01 01:18:55;;;;;;;14.95;7.35;;;3.70;94.20;;;;;;5073912;28;20032;-77
2023/03/01 01:21:23;;;;;;;12.85;7.50;;;3.60;94.30;;;;;;5073129;28;20494;-77
2023/03/01 01:23:49;;;;;;;15.63;8.20;;;3.60;94.30;;;;;;5072186;28;20029;-76
2023/03/01 01:26:24;;;;;;;17.35;7.72;;;3.70;94.30;;;;;;5072085;28;20075;-77
2023/03/01 01:28:49;;;;;;;;;;;3.60;94.40;;;;;;5073015;28;20033;-77
2023/03/01 01:31:15;;;;;;;16.90;7.57;;;3.60;94.40;;;;;;5073063;28;20327;-77
2023/03/01 01:33:41;;;;;;;16.23;7.75;;;3.50;94.30;;;;;;5072036;28;20378;-77
2023/03/01 01:36:08;;;;;;;16.58;8.40;;;3.50;94.50;;;;;;5064552;28;20029;-76
2023/03/01 01:38:35;;;;;;;18.08;7.57;;;3.60;94.40;;;;;;5072724;28;20032;-78
2023/03/01 01:44:26;;;;;;;14.98;6.53;;;3.80;94.20;;;;;;5066584;28;20067;-77
2023/03/01 01:47:05;;;;;;;15.13;7.47;;;3.50;94.30;;;;;;5073349;28;20112;-77
2023/03/01 01:49:42;;;;;;;12.98;6.18;;;3.40;94.60;;;;;;5071630;28;20039;-77
2023/03/01 01:52:29;;;;;;;14.75;7.47;;;3.30;94.80;;;;;;5071950;28;20072;-77
2023/03/01 01:55:01;;;;;;;17.45;7.65;;;3.30;94.90;;;;;;5069829;28;20591;-77
2023/03/01 01:57:40;;;;;;;14.27;7.78;;;3.40;94.70;;;;;;5064958;28;20025;-77
2023/03/01 02:00:22;;;;;;;15.25;7.47;;;3.20;94.80;;;;;;5067929;28;20363;-76
2023/03/01 02:02:54;;;;;;;14.65;8.38;;;3.40;94.70;;;;;;5069348;28;20048;-77
2023/03/01 02:05:51;;;;;;;21.90;8.90;;;3.30;94.70;;;;;;5070806;28;20032;-77
2023/03/01 02:08:19;;;;;;;15.27;7.47;;;3.40;94.70;;;;;;5069787;28;20036;-77
2023/03/01 02:10:47;;;;;;;16.23;9.35;;;3.60;94.50;;;;;;5062634;28;20040;-77
2023/03/01 02:13:13;;;;;;;17.60;8.25;;;3.40;94.50;;;;;;5067192;28;20056;-77
2023/03/01 02:15:41;;;;;;;13.52;7.60;;;3.20;94.90;;;;;;5070576;28;20028;-77
2023/03/01 02:18:08;;;;;;;11.95;7.57;;;3.10;95.20;;;;;;5073470;28;20034;-77
2023/03/01 02:20:58;;;;;;;12.63;7.70;;;3.10;95.20;;;;;;5063658;28;20025;-77
2023/03/01 02:23:25;;;;;;;14.88;8.73;;;3.10;95.20;;;;;;5068251;28;20029;-76
2023/03/01 02:26:07;;;;;;;17.05;9.10;;;3.60;94.80;;;;;;5065047;28;20115;-77
2023/03/01 02:28:38;;;;;;;17.17;8.32;;;3.70;94.50;;;;;;5068664;28;20063;-76
2023/03/01 02:33:53;;;;;;;13.40;7.03;;;3.20;94.90;;;;;;5068470;28;20043;-77
2023/03/01 02:36:30;;;;;;;17.35;8.18;;;2.90;95.40;;;;;;5070783;28;20063;-77
2023/03/01 02:38:58;;;;;;;17.65;7.90;;;2.80;95.60;;;;;;5070810;28;20071;-77
2023/03/01 02:41:26;;;;;;;14.80;7.45;;;2.50;96.00;;;;;;5070444;28;20020;-77
2023/03/01 02:43:52;;;;;;;15.30;7.90;;;2.70;96.20;;;;;;5059118;28;20033;-76
2023/03/01 02:46:24;;;;;;;16.77;8.07;;;3.10;95.40;;;;;;5072031;28;20021;-77
2023/03/01 02:48:57;;;;;;;17.35;9.10;;;3.10;95.30;;;;;;5069352;28;20029;-77
2023/03/01 02:52:03;;;;;;;12.63;7.45;;;3.20;95.00;;;;;;5055013;28;20040;-76
2023/03/01 02:54:36;;;;;;;13.77;7.78;;;3.60;94.60;;;;;;5039759;28;20700;-77
2023/03/01 02:57:03;;;;;;;18.58;7.60;;;3.70;94.50;;;;;;5071359;28;20081;-77
2023/03/01 02:59:39;;;;;;;14.25;7.88;;;3.60;94.60;;;;;;5064922;28;20086;-76
2023/03/01 03:02:20;;;;;;;14.30;7.20;;;3.80;94.50;;;;;;5064459;28;20484;-76
2023/03/01 03:04:46;;;;;;;18.10;7.55;;;3.60;94.50;;;;;;5064111;28;20047;-76
2023/03/01 03:07:11;;;;;;;12.27;6.65;;;3.40;94.70;;;;;;5069603;28;20485;-76
2023/03/01 03:09:37;;;;;;;14.23;7.78;;;3.40;94.80;;;;;;5068152;28;20108;-76
2023/03/01 03:12:03;;;;;;;12.60;7.25;;;3.50;94.90;;;;;;5063567;28;20045;-76
2023/03/01 03:14:29;;;;;;;15.85;8.65;;;3.60;94.70;;;;;;5070969;28;20028;-76
2023/03/01 03:16:54;;;;;;;19.33;9.32;;;3.80;94.40;;;;;;5070706;28;20032;-76
2023/03/01 03:19:20;;;;;;;20.10;10.23;;;3.70;94.40;;;;;;5070044;28;20031;-76
2023/03/01 03:21:46;;;;;;;15.68;8.75;;;3.60;94.30;;;;;;5057489;28;20032;-76
2023/03/01 03:24:12;;;;;;;15.23;7.90;;;3.30;94.70;;;;;;5061359;28;20040;-75
2023/03/01 03:26:38;;;;;;;15.48;7.53;;;2.90;95.40;;;;;;5070742;28;20491;-76
2023/03/01 03:29:03;;;;;;;14.52;8.30;;;2.60;95.90;;;;;;5068166;28;20490;-76
2023/03/01 03:31:29;;;;;;;16.75;9.18;;;2.70;96.00;;;;;;5068539;28;20037;-76
2023/03/01 03:33:56;;;;;;;13.43;7.07;;;3.00;95.70;;;;;;5062312;28;20593;-75
2023/03/01 03:36:23;;;;;;;14.07;6.88;;;3.20;95.20;;;;;;5072657;28;20035;-76
2023/03/01 03:38:49;;;;;;;13.73;7.68;;;3.10;95.30;;;;;;5073102;28;20484;-78
2023/03/01 03:41:15;;;;;;;18.55;8.20;;;3.10;95.30;;;;;;5073985;28;20064;-76
2023/03/01 03:43:43;;;;;;;13.93;8.10;;;3.10;95.50;;;;;;5074242;28;20521;-76
2023/03/01 03:46:11;;;;;;;19.15;8.57;;;3.20;95.30;;;;;;5074136;28;20032;-76
2023/03/01 03:48:43;;;;;;;16.13;8.23;;;3.40;95.00;;;;;;5075276;28;20062;-76
2023/03/01 03:51:16;;;;;;;14.93;7.90;;;3.30;95.00;;;;;;5072073;28;20363;-76
2023/03/01 03:53:43;;;;;;;17.02;8.07;;;3.30;95.30;;;;;;5073700;28;20032;-76
2023/03/01 03:56:09;;;;;;;15.38;8.23;;;3.20;95.20;;;;;;5073404;28;20063;-76
2023/03/01 03:58:35;;;;;;;14.57;6.97;;;3.10;95.30;;;;;;5073610;28;20121;-76
2023/03/01 04:01:01;;;;;;;16.48;8.07;;;3.00;95.40;;;;;;5070611;28;20033;-77
2023/03/01 04:03:28;;;;;;;14.48;7.30;;;3.10;95.50;;;;;;5064419;28;20086;-77
2023/03/01 04:05:56;;;;;;;12.73;7.18;;;3.10;95.50;;;;;;5063411;28;20111;-77
2023/03/01 04:08:23;;;;;;;13.30;6.85;;;3.20;95.30;;;;;;5066704;28;20604;-78
2023/03/01 04:10:51;;;;;;;12.68;6.65;;;3.10;95.30;;;;;;5066184;28;20567;-77
2023/03/01 04:13:22;;;;;;;17.77;8.98;;;3.10;95.50;;;;;;5067064;28;20483;-79
2023/03/01 04:15:54;;;;;;;14.00;7.75;;;3.20;95.30;;;;;;5068174;28;20554;-79
2023/03/01 04:18:22;;;;;;;14.20;7.53;;;3.00;95.50;;;;;;5055980;28;20090;-77
2023/03/01 04:20:49;;;;;;;15.20;7.55;;;3.10;95.20;;;;;;5064645;28;20021;-76
2023/03/01 04:23:20;;;;;;;14.50;7.35;;;3.00;95.20;;;;;;5068786;28;20021;-76
2023/03/01 04:25:54;;;;;;;12.43;7.32;;;2.60;95.80;;;;;;5068802;28;20020;-75
2023/03/01 04:28:26;;;;;;;13.90;7.22;;;2.70;95.80;;;;;;5068545;28;20017;-76
2023/03/01 04:30:53;;;;;;;14.88;7.43;;;2.60;96.00;;;;;;5067757;28;20245;-76
2023/03/01 04:33:20;;;;;;;13.25;7.63;;;2.40;96.20;;;;;;5069918;28;20654;-76
2023/03/01 04:35:45;;;;;;;12.10;5.95;;;2.40;96.60;;;;;;5068223;28;20047;-76
2023/03/01 04:38:11;;;;;;;11.95;7.30;;;2.20;96.80;;;;;;5066983;28;20510;-76
2023/03/01 04:40:37;;;;;;;14.95;7.03;;;2.40;96.50;;;;;;5066818;28;20040;-76
2023/03/01 04:43:03;;;;;;;13.45;6.70;;;2.40;96.70;;;;;;5068901;28;20478;-77
2023/03/01 04:45:29;;;;;;;13.10;6.65;;;2.40;96.90;;;;;;5066252;28;20040;-76
2023/03/01 04:47:57;;;;;;;11.70;6.03;;;2.30;96.50;;;;;;5069781;28;20033;-76
2023/03/01 04:50:23;;;;;;;13.82;7.03;;;2.10;96.90;;;;;;5062021;28;20025;-76
2023/03/01 04:52:49;;;;;;;14.07;6.88;;;1.80;97.40;;;;;;5062570;28;20086;-75
2023/03/01 04:55:15;;;;;;;13.65;6.82;;;1.80;97.80;;;;;;5064700;28;20028;-77
2023/03/01 04:57:41;;;;;;;13.20;7.18;;;1.90;97.50;;;;;;5069054;28;20119;-75
2023/03/01 05:00:22;;;;;;;12.20;5.90;;;2.10;97.40;;;;;;5060491;28;20352;-76
2023/03/01 05:02:53;;;;;;;11.63;6.07;;;2.20;97.00;;;;;;5062565;28;20044;-76
2023/03/01 05:05:41;;;;;;;15.20;6.95;;;2.20;97.20;;;;;;5063567;28;20028;-76
2023/03/01 05:08:07;;;;;;;13.93;6.35;;;2.20;97.10;;;;;;5067034;28;20040;-77
2023/03/01 05:10:35;;;;;;;12.90;6.50;;;2.10;97.20;;;;;;5066371;28;20028;-76
2023/03/01 05:13:02;;;;;;;10.88;5.88;;;2.10;97.10;;;;;;5070555;28;20072;-76
2023/03/01 05:15:31;;;;;;;11.20;5.72;;;2.20;96.90;;;;;;5063779;28;20032;-76
2023/03/01 05:17:59;;;;;;;12.82;6.15;;;2.30;96.80;;;;;;5052504;28;20031;-75
2023/03/01 05:20:29;;;;;;;11.88;6.57;;;2.30;97.10;;;;;;5066167;28;20052;-76
2023/03/01 05:22:58;;;;;;;13.35;6.40;;;2.20;96.90;;;;;;5068492;28;20036;-76
2023/03/01 05:25:24;;;;;;;11.00;5.20;;;2.10;97.20;;;;;;5065695;28;20157;-76
2023/03/01 05:27:50;;;;;;;12.13;5.70;;;2.00;97.20;;;;;;5067436;28;20103;-76
2023/03/01 05:30:17;;;;;;;9.52;5.78;;;2.10;97.30;;;;;;5064759;28;20027;-75
2023/03/01 05:32:48;;;;;;;13.15;6.30;;;2.20;97.10;;;;;;5067372;28;20047;-76
2023/03/01 05:35:17;;;;;;;13.20;6.10;;;2.20;97.10;;;;;;5067183;28;20596;-76
2023/03/01 05:37:44;;;;;;;9.98;5.97;;;2.20;97.20;;;;;;5064410;28;20040;-76
2023/03/01 05:40:15;;;;;;;11.05;6.45;;;2.10;97.30;;;;;;5064141;28;20032;-76
2023/03/01 05:42:45;;;;;;;12.05;6.63;;;2.00;97.50;;;;;;5066075;28;20127;-75
2023/03/01 05:45:12;;;;;;;14.27;6.53;;;2.20;97.40;;;;;;5068315;28;20032;-76
2023/03/01 05:47:43;;;;;;;12.07;6.15;;;2.40;97.00;;;;;;5056725;28;20393;-76
2023/03/01 05:50:18;;;;;;;12.48;6.13;;;2.30;97.10;;;;;;5065604;28;20494;-75
2023/03/01 05:52:49;;;;;;;12.10;6.50;;;2.30;97.00;;;;;;5066797;28;20493;-76
2023/03/01 05:55:20;;;;;;;12.00;6.35;;;2.10;97.40;;;;;;5066167;28;20036;-77
2023/03/01 05:57:46;;;;;;;14.98;6.57;;;2.00;97.60;;;;;;5064899;28;20075;-76
2023/03/01 06:00:15;;;;;;;14.38;7.47;;;2.00;97.50;;;;;;5058575;28;20377;-76
2023/03/01 06:02:41;;;;;;;13.50;6.30;;;2.20;97.30;;;;;;5065861;28;20028;-76
2023/03/01 06:05:09;;;;;;;11.23;6.10;;;1.90;97.80;;;;;;5062354;28;20039;-77
2023/03/01 06:07:36;;;;;;;13.95;6.55;;;2.10;97.70;;;;;;5065257;28;20040;-75
2023/03/01 06:10:06;;;;;;;12.30;6.20;;;2.10;97.60;;;;;;5067151;28;20088;-77
2023/03/01 06:12:33;;;;;;;15.82;6.68;;;2.40;97.20;;;;;;5063838;28;20045;-76
2023/03/01 06:14:59;;;;;;;13.88;7.18;;;2.40;96.90;;;;;;5055488;28;20025;-75
2023/03/01 06:17:25;;;;;;;11.63;5.95;;;2.40;96.90;;;;;;5057085;28;20648;-78
2023/03/01 06:19:51;;;;;;;13.55;6.60;;;2.50;96.70;;;;;;5055153;28;20032;-75
2023/03/01 06:22:16;;;;;;;13.13;6.72;;;2.30;97.10;;;;;;5054097;28;20028;-76
2023/03/01 06:24:42;;;;;;;12.20;6.25;;;2.30;97.30;;;;;;5065543;28;20078;-75
2023/03/01 06:27:08;;;;;;;13.15;6.93;;;2.40;97.10;;;;;;5062828;28;20044;-76
2023/03/01 06:29:33;;;;;;;12.35;7.38;;;2.40;97.00;;;;;;5070402;28;20036;-74
2023/03/01 06:31:59;;;;;;;14.73;6.93;;;2.50;97.10;;;;;;5062153;28;20040;-76
2023/03/01 06:34:25;;;;;;;14.30;7.40;;;2.70;96.60;;;;;;5065376;28;20032;-75
2023/03/01 06:36:50;;;;;;;11.05;6.43;;;2.80;96.40;;;;;;5068164;28;20116;-75
2023/03/01 06:39:17;;;;;;;17.67;6.35;;;2.90;96.70;;;;;;5064455;28;20028;-74
2023/03/01 06:41:43;;;;;;;12.48;6.18;;;3.20;95.80;;;;;;5060387;28;20258;-75
2023/03/01 06:44:09;;;;;;;12.85;6.28;;;3.40;95.70;;;;;;5058598;28;20024;-75
2023/03/01 06:46:34;;;;;;;11.57;5.80;;;3.20;96.10;;;;;;5065265;28;20093;-75
2023/03/01 06:49:00;;;;;;;13.68;7.22;;;3.00;96.20;;;;;;5064861;28;20029;-76
2023/03/01 06:51:26;;;;;;;12.75;6.43;;;3.10;96.40;;;;;;5066451;28;20033;-75
2023/03/01 06:53:51;;;;;;;11.32;5.40;;;3.30;96.20;;;;;;5065636;28;20044;-76
2023/03/01 06:56:17;;;;;;;14.00;6.13;;;3.40;95.90;;;;;;5064036;28;20474;-77
2023/03/01 06:58:43;;;;;;;13.15;6.05;;;3.50;96.00;;;;;;5063638;28;20039;-77
2023/03/01 07:01:09;;;;;;;14.77;5.82;;;3.60;95.90;;;;;;5059667;28;20123;-78
2023/03/01 07:03:35;;;;;;;13.50;7.45;;;3.70;96.00;;;;;;5061094;28;20033;-78
2023/03/01 07:06:01;;;;;;;18.33;7.35;;;3.70;95.70;;;;;;5065261;28;20163;-78
2023/03/01 07:08:26;;;;;;;11.32;5.78;;;3.60;95.70;;;;;;5064761;28;20093;-77
2023/03/01 07:10:56;;;;;;;13.15;6.68;;;3.80;95.50;;;;;;5064626;28;20040;-76
2023/03/01 07:13:22;;;;;;;14.77;6.72;;;3.90;95.80;;;;;;5056370;28;20040;-77
2023/03/01 07:15:47;;;;;;;12.27;6.32;;;4.00;95.90;;;;;;5059559;28;20028;-77
2023/03/01 07:18:13;;;;;;;14.05;6.18;;;4.10;95.60;;;;;;5059047;28;20483;-77
2023/03/01 07:20:39;;;;;;;18.23;5.78;;;4.00;95.60;;;;;;5062750;28;20032;-76
2023/03/01 07:23:06;;;;;;;18.33;5.22;;;4.10;94.90;;;;;;5064222;28;20222;-77
2023/03/01 07:25:32;;;;;;;12.70;5.95;;;4.10;94.80;;;;;;5064796;28;20033;-78
2023/03/01 07:27:58;;;;;;;11.05;5.40;;;4.20;94.90;;;;;;5062712;28;20486;-77
2023/03/01 07:30:27;;;;;;;12.93;4.93;;;4.30;94.60;;;;;;5062416;28;20102;-80
2023/03/01 10:59:04;;;;;;;7.38;3.83;;;7.80;90.40;;;;;;5020035;28;20440;-75
2023/03/01 11:01:32;;;;;;;9.07;4.25;;;7.80;89.80;;;;;;5007753;28;20026;-77
2023/03/01 11:04:18;;;;;;;9.43;4.90;;;7.80;90.00;;;;;;5003484;28;20033;-74
2023/03/01 11:06:50;;;;;;;7.43;4.43;;;7.80;89.80;;;;;;5001848;28;21001;-74
2023/03/01 11:09:27;;;;;;;55.80;7.78;;;8.10;90.30;;;;;;4989371;28;20026;-75
2023/03/01 11:11:57;;;;;;;12.57;3.65;;;8.20;90.20;;;;;;4988640;28;20503;-74
2023/03/01 11:14:25;;;;;;;11.98;5.10;;;8.70;90.30;;;;;;5000427;28;20111;-72
2023/03/01 11:17:03;;;;;;;8.73;4.20;;;8.60;90.00;;;;;;5001567;28;20057;-72
2023/03/01 11:19:29;;;;;;;8.55;4.45;;;8.40;89.40;;;;;;4982561;28;20590;-72
2023/03/01 11:22:03;;;;;;;8.48;4.35;;;8.30;89.00;;;;;;4984879;28;20057;-73
2023/03/01 11:24:43;;;;;;;11.15;5.03;;;8.30;89.80;;;;;;5001964;28;20167;-73
2023/03/01 11:27:24;;;;;;;12.48;6.47;;;8.30;90.00;;;;;;4999025;28;20026;-73
2023/03/01 11:29:59;;;;;;;15.00;4.72;;;8.30;90.30;;;;;;4989318;28;20121;-74
2023/03/01 11:32:31;;;;;;;11.50;5.20;;;8.40;89.50;;;;;;4990202;28;20455;-75
2023/03/01 11:35:09;;;;;;;10.30;4.32;;;8.40;91.30;;;;;;4985400;28;20720;-74
2023/03/01 11:37:41;;;;;;;9.82;4.90;;;8.40;90.20;;;;;;4983872;28;20038;-72
2023/03/01 11:40:25;;;;;;;13.20;5.45;;;8.30;90.40;;;;;;4993274;28;20149;-73
2023/03/01 11:43:12;;;;;;;12.25;6.25;;;8.30;90.30;;;;;;4994938;28;20061;-74
2023/03/01 11:45:50;;;;;;;12.88;5.63;;;8.30;90.70;;;;;;4996526;28;20650;-73
2023/03/01 11:48:38;;;;;;;11.18;5.57;;;8.30;90.20;;;;;;4981399;28;20530;-79
2023/03/01 11:51:15;;;;;;;10.88;4.93;;;8.30;90.10;;;;;;4982425;28;20057;-74
2023/03/01 11:53:59;;;;;;;10.07;5.05;;;8.40;89.40;;;;;;4978827;28;20053;-72
2023/03/01 11:57:06;;;;;;;10.48;4.47;;;8.40;89.20;;;;;;4965346;28;20496;-75
2023/03/01 11:59:52;;;;;;;11.38;4.80;;;8.50;88.30;;;;;;4967921;28;20122;-76
2023/03/01 12:02:47;;;;;;;9.70;4.45;;;8.50;88.70;;;;;;4978811;28;20637;-73
2023/03/01 12:05:41;;;;;;;5.95;3.03;;;8.50;89.00;;;;;;4976492;28;20030;-74
2023/03/01 12:08:21;;;;;;;7.13;3.03;;;8.50;88.20;;;;;;4976078;28;20535;-74
2023/03/01 12:10:56;;;;;;;10.73;4.00;;;8.50;87.80;;;;;;4968537;28;20026;-74
2023/03/01 12:13:56;;;;;;;8.70;4.78;;;8.50;88.70;;;;;;4977593;28;20045;-75
2023/03/01 12:16:28;;;;;;;11.93;6.18;;;8.50;88.90;;;;;;4979650;28;20038;-74
2023/03/01 12:19:24;;;;;;;12.27;7.05;;;8.50;89.20;;;;;;4969672;28;20409;-74
2023/03/01 12:22:27;;;;;;;10.82;6.80;;;8.50;89.50;;;;;;4979199;28;20116;-79
2023/03/01 12:24:56;;;;;;;11.07;5.72;;;8.40;89.50;;;;;;4984647;28;20129;-77
2023/03/01 12:27:36;;;;;;;11.18;6.75;;;8.30;89.70;;;;;;4972638;28;20626;-76
2023/03/01 12:30:01;;;;;;;13.63;7.85;;;8.30;89.70;;;;;;4981670;28;20038;-78
2023/03/01 12:32:50;;;;;;;11.32;7.65;;;8.40;89.80;;;;;;4974348;28;20046;-77
2023/03/01 12:35:27;;;;;;;24.70;12.05;;;8.30;90.00;;;;;;4981777;28;20037;-77
2023/03/01 12:38:01;;;;;;;59.20;34.58;;;8.20;89.30;;;;;;4979337;28;20061;-78
2023/03/01 12:40:46;;;;;;;32.15;19.63;;;8.10;89.40;;;;;;4971031;28;20137;-74
2023/03/01 12:43:36;;;;;;;12.13;8.40;;;8.10;89.40;;;;;;4976921;28;20046;-75
2023/03/01 12:46:37;;;;;;;9.48;5.05;;;8.20;90.90;;;;;;4972893;28;20045;-74
2023/03/01 12:49:10;;;;;;;9.25;4.70;;;8.00;89.80;;;;;;4980365;28;20121;-76
2023/03/01 12:51:37;;;;;;;13.00;4.95;;;8.10;90.20;;;;;;4980135;28;20038;-77
2023/03/01 12:54:21;;;;;;;7.60;4.68;;;8.20;90.20;;;;;;4970887;28;20144;-74
2023/03/01 12:56:52;;;;;;;13.15;5.38;;;8.20;89.60;;;;;;4969029;28;20066;-74
2023/03/01 12:59:32;;;;;;;10.10;5.25;;;8.20;89.60;;;;;;4980812;28;20104;-75
2023/03/01 13:02:16;;;;;;;9.20;5.20;;;8.20;89.90;;;;;;4984841;28;20062;-76
2023/03/01 13:04:51;;;;;;;11.40;4.43;;;8.20;89.40;;;;;;4972854;28;20055;-75
2023/03/01 13:07:22;;;;;;;10.18;4.68;;;8.20;88.80;;;;;;4978688;28;20034;-74
2023/03/01 13:10:31;;;;;;;11.75;5.05;;;8.30;88.80;;;;;;4976664;28;20092;-76
2023/03/01 13:12:56;;;;;;;8.32;3.67;;;8.40;88.90;;;;;;4967080;28;20472;-74
2023/03/01 13:15:22;;;;;;;8.43;3.83;;;8.30;89.50;;;;;;4979775;28;20034;-75
2023/03/01 13:17:52;;;;;;;8.88;4.00;;;8.30;88.90;;;;;;4980165;28;20058;-75
2023/03/01 13:20:30;;;;;;;8.45;3.75;;;8.40;88.80;;;;;;4985900;28;20034;-74
2023/03/01 13:23:14;;;;;;;8.25;3.45;;;8.50;88.20;;;;;;4974438;28;20026;-74
2023/03/01 13:26:11;;;;;;;6.80;3.97;;;8.60;88.20;;;;;;4978494;28;20023;-75
2023/03/01 13:28:57;;;;;;;7.80;4.10;;;8.40;89.40;;;;;;4977091;28;20038;-75
2023/03/01 13:31:25;;;;;;;10.32;4.22;;;8.30;89.90;;;;;;4971180;28;20483;-75
2023/03/01 13:33:54;;;;;;;8.30;3.92;;;8.20;90.00;;;;;;4973184;28;20173;-74
2023/03/01 13:36:29;;;;;;;10.43;4.18;;;8.20;90.20;;;;;;4976733;28;20035;-76
2023/03/01 13:38:59;;;;;;;9.98;4.20;;;8.20;90.00;;;;;;4975890;28;20038;-74
2023/03/01 13:41:49;;;;;;;12.02;4.93;;;8.20;90.10;;;;;;4974767;28;20041;-74
2023/03/01 13:44:41;;;;;;;9.63;4.43;;;8.30;90.20;;;;;;4972547;28;20409;-74
2023/03/01 13:47:08;;;;;;;8.35;4.68;;;8.30;90.10;;;;;;4980306;28;20089;-75
2023/03/01 13:49:47;;;;;;;7.18;3.72;;;8.40;90.40;;;;;;4975632;28;20031;-77
2023/03/01 13:52:39;;;;;;;7.95;4.47;;;8.40;90.10;;;;;;4975285;28;20039;-74
2023/03/01 13:55:13;;;;;;;8.60;3.75;;;8.50;89.80;;;;;;4975971;28;20117;-75
2023/03/01 13:57:41;;;;;;;9.77;4.20;;;8.50;90.00;;;;;;4968919;28;20154;-75
2023/03/01 14:00:28;;;;;;;6.93;4.38;;;8.50;90.60;;;;;;4969555;28;20030;-74
2023/03/01 14:03:13;;;;;;;9.15;3.58;;;8.50;90.70;;;;;;4967150;28;20041;-77
2023/03/01 14:05:40;;;;;;;7.63;3.13;;;8.50;90.20;;;;;;4976751;28;20532;-75
2023/03/01 14:08:20;;;;;;;9.25;3.45;;;8.50;90.70;;;;;;4965291;28;20030;-74
2023/03/01 14:10:53;;;;;;;7.80;3.17;;;8.60;90.40;;;;;;4971364;28;20038;-75
2023/03/01 14:13:42;;;;;;;10.23;3.83;;;8.70;90.40;;;;;;4968451;28;20480;-75
2023/03/01 14:16:14;;;;;;;9.93;4.35;;;8.70;90.50;;;;;;4959468;28;20068;-75
2023/03/01 14:18:53;;;;;;;11.10;4.18;;;8.80;90.60;;;;;;4980287;28;20492;-79
2023/03/01 14:21:19;;;;;;;9.35;4.40;;;8.80;90.90;;;;;;4969274;28;20034;-74
2023/03/01 14:23:46;;;;;;;7.78;3.72;;;8.70;90.80;;;;;;4965158;28;20771;-75
2023/03/01 14:26:12;;;;;;;13.43;4.15;;;8.70;90.90;;;;;;4969775;28;20530;-76
2023/03/01 14:28:38;;;;;;;9.23;4.57;;;8.70;91.10;;;;;;4965167;28;20037;-77
2023/03/01 14:31:37;;;;;;;13.75;4.45;;;8.70;91.00;;;;;;4966020;28;20057;-78
2023/03/01 14:34:03;;;;;;;12.80;5.00;;;8.60;90.80;;;;;;4966981;28;20606;-75
2023/03/01 14:36:31;;;;;;;10.80;4.00;;;8.60;91.10;;;;;;4970013;28;20072;-74
2023/03/01 14:39:04;;;;;;;11.95;5.32;;;8.50;90.90;;;;;;4978078;28;21022;-74
2023/03/01 14:41:34;;;;;;;8.32;4.00;;;8.50;91.20;;;;;;4984527;28;20034;-75
2023/03/01 14:44:06;;;;;;;11.90;4.50;;;8.50;91.00;;;;;;4979997;28;20045;-76
2023/03/01 14:46:40;;;;;;;9.82;4.03;;;8.60;90.90;;;;;;4978339;28;20042;-75
2023/03/01 14:49:15;;;;;;;9.98;4.85;;;8.60;91.10;;;;;;4976653;28;20128;-74
2023/03/01 14:51:46;;;;;;;13.10;6.43;;;8.60;91.30;;;;;;4975721;28;20031;-75
2023/03/01 14:54:25;;;;;;;8.13;4.60;;;8.60;91.50;;;;;;4976343;28;20038;-74
2023/03/01 14:56:53;;;;;;;12.70;5.07;;;8.60;91.50;;;;;;4969724;28;20034;-74
2023/03/01 14:59:23;;;;;;;8.55;4.15;;;8.70;91.40;;;;;;4967187;28;20056;-75
2023/03/01 15:01:51;;;;;;;16.75;4.50;;;8.60;91.40;;;;;;4964650;28;20023;-75
2023/03/01 15:04:18;;;;;;;9.40;4.82;;;8.70;91.40;;;;;;4964410;28;20031;-75
2023/03/01 15:06:44;;;;;;;8.93;3.28;;;8.70;91.70;;;;;;4965259;28;20455;-75
2023/03/01 15:09:17;;;;;;;8.70;3.97;;;8.70;91.40;;;;;;4984439;28;20035;-75
2023/03/01 15:11:45;;;;;;;9.27;4.43;;;8.70;92.00;;;;;;4966668;28;20034;-75
2023/03/01 15:14:43;;;;;;;14.13;4.25;;;8.70;91.60;;;;;;4965327;28;20047;-74
2023/03/01 15:17:30;;;;;;;7.32;3.45;;;8.70;91.80;;;;;;4980078;28;20038;-74
2023/03/01 15:19:56;;;;;;;16.73;4.03;;;8.70;92.00;;;;;;4964020;28;20035;-80
2023/03/01 15:22:24;;;;;;;8.20;4.55;;;8.70;92.00;;;;;;4965020;28;20090;-75
2023/03/01 15:24:50;;;;;;;9.90;3.80;;;8.70;91.70;;;;;;4977874;28;20350;-75
2023/03/01 15:27:22;;;;;;;6.78;3.15;;;8.70;91.80;;;;;;4971822;28;20022;-80
2023/03/01 15:30:22;;;;;;;7.40;3.42;;;8.70;91.90;;;;;;4978646;28;20027;-80
2023/03/01 15:32:47;;;;;;;7.97;3.83;;;8.70;92.00;;;;;;4970921;28;20075;-75
2023/03/01 15:35:44;;;;;;;21.60;6.88;;;8.70;91.90;;;;;;4981655;28;20074;-74
2023/03/01 15:38:31;;;;;;;12.43;5.55;;;8.80;92.10;;;;;;4967900;28;20026;-74
2023/03/01 15:41:03;;;;;;;13.07;6.35;;;8.70;92.20;;;;;;4974887;28;20516;-74
2023/03/01 15:43:45;;;;;;;13.07;6.18;;;8.70;92.10;;;;;;4974850;28;20517;-74
2023/03/01 15:46:31;;;;;;;10.82;4.38;;;8.70;92.20;;;;;;4975512;28;20082;-75
2023/03/01 15:48:59;;;;;;;8.95;4.38;;;8.70;92.20;;;;;;4974013;28;20064;-75
2023/03/01 15:51:36;;;;;;;21.00;6.18;;;8.70;92.30;;;;;;4974086;28;20073;-75
2023/03/01 15:54:17;;;;;;;18.30;5.35;;;8.80;92.00;;;;;;4972633;28;20127;-74
2023/03/01 15:56:43;;;;;;;9.02;3.50;;;9.10;91.60;;;;;;4976394;28;20038;-75
2023/03/01 15:59:11;;;;;;;11.23;4.13;;;9.40;91.30;;;;;;4974615;28;20047;-74
2023/03/01 16:01:37;;;;;;;9.70;3.55;;;9.40;91.10;;;;;;4969241;28;20038;-75
2023/03/01 16:04:03;;;;;;;10.93;4.93;;;9.60;91.00;;;;;;4967760;28;20266;-75
2023/03/01 16:06:28;;;;;;;12.35;3.65;;;9.70;90.70;;;;;;4979754;28;20105;-75
2023/03/01 16:08:54;;;;;;;9.00;3.63;;;9.80;90.70;;;;;;4983087;28;20687;-77
2023/03/01 16:11:21;;;;;;;12.00;4.25;;;9.80;90.60;;;;;;4976315;28;20057;-77
2023/03/01 16:13:47;;;;;;;16.10;3.90;;;9.80;90.60;;;;;;4979998;28;20034;-74
2023/03/01 16:16:16;;;;;;;11.43;3.80;;;9.80;90.50;;;;;;4984115;28;20582;-75
2023/03/01 16:18:46;;;;;;;14.82;4.25;;;9.80;90.70;;;;;;4976224;28;20037;-76
2023/03/01 16:21:23;;;;;;;10.38;3.30;;;9.80;90.80;;;;;;4982490;28;20058;-78
2023/03/01 16:23:49;;;;;;;8.52;3.35;;;9.70;90.70;;;;;;4975375;28;20065;-75
2023/03/01 16:26:15;;;;;;;9.25;3.22;;;9.70;90.70;;;;;;4979077;28;20037;-75
2023/03/01 16:28:44;;;;;;;10.43;3.88;;;9.70;90.70;;;;;;4971028;28;20034;-74
2023/03/01 16:31:11;;;;;;;21.02;11.32;;;9.60;90.80;;;;;;4969373;28;20034;-75
2023/03/01 16:33:37;;;;;;;14.02;8.32;;;9.00;91.00;;;;;;4967034;28;20185;-75
2023/03/01 16:36:11;;;;;;;12.82;7.25;;;8.80;90.90;;;;;;4982129;28;20621;-75
2023/03/01 16:38:38;;;;;;;19.00;6.43;;;8.70;90.80;;;;;;4966562;28;20101;-75
2023/03/01 16:41:04;;;;;;;10.00;5.28;;;8.70;90.90;;;;;;4968045;28;20512;-74
2023/03/01 16:43:31;;;;;;;14.75;6.32;;;8.70;91.00;;;;;;4971448;28;20632;-75